Rigby, ID (83442)

5:23 AM MDT on September 25, 2017 (GMT -0600)
East Garfield | | Change Station
Active Advisory: Frost Advisory

Elev 4856 ft 43.63 °N, 111.92 °W | Updated 1 minute ago

Clear
Clear
28.8 °F
Feels Like 29 °F
N
0.0
Wind Variable Wind from ESE

Today
High -- | Low -- °F
--% Chance of Precip.
Yesterday
High -- | Low -- °F
Precip. -- in
Pressure 30.09 in
Visibility 10.0 miles
Clouds Clear
Windchill 29 °F
Dew Point 28 °F
Humidity 98%
Rainfall 0.00 in
Snow Depth Not available.
7:18 AM 7:18 PM
Waxing Crescent, 26% visible
METAR KRXE 251053Z AUTO 21005KT 10SM CLR 01/M01 A3010 RMK AO2 SLP188 T00111011 $
Pressure 30.09 in
Visibility 10.0 miles
Clouds Clear
Windchill 29 °F
Dew Point 28 °F
Humidity 98%
Rainfall 0.00 in
Snow Depth Not available.
7:18 AM 7:18 PM
Waxing Crescent, 26% visible
METAR KRXE 251053Z AUTO 21005KT 10SM CLR 01/M01 A3010 RMK AO2 SLP188 T00111011 $

Get Your Daily Forecast Email!

Thanks for signing up!

Be on the lookout for a verification email in your inbox.

You'll start receiving severe weather alerts in your inbox..

×

10-Day Weather Forecast

Almanac

Astronomy

Sep. 25, 2017 Rise Set
Actual Time
Civil Twilight
Nautical Twilight
Astronomical Twilight
Moon
Length of Visible Light
Length of Day
Tomorrow will be .
, % of the Moon is Illuminated

Today's Extremes

State Highs State Lows

Community

WunderPhotos

Category 6

Welcome to Category 6. This is the collective home for Weather Underground's featured writeups by Dr. Jeff Masters (right), Bob Henson (left), Chris Burt, and other regular contributors.

Nearby

Air Quality

  Air Quality AQ Index Pollutant
Not available.

Snow Depth

Station Depth Elevation

Earthquake Activity

City Distance Mag. Time & Date
Minimum magnitude displayed is 2.5.

Coastal Water Temperatures

Place Temperature

Stations

Nearby Weather Stations

Station Location Temp. Windchill Dew Point Humidity Wind Precip. Elev Updated Type
                   

Watches & Warnings

Frost Advisory
Issued: 2:20 AM MDT Sep. 25, 2017 – National Weather Service

... Frost advisory remains in effect until 9 am MDT this morning...

* temperature... falling to 32 to 36 degrees late tonight.

* Impacts... sensitive vegetation, if left outdoors or uncovered,
could be damaged by frost or light freeze conditions.


Precautionary/preparedness actions...

A frost advisory means that widespread frost is expected.
Sensitive outdoor plants may be killed if left uncovered.